Time;durP1;ratioP1;P1;durP2;ratioP2;P2;SDS_P1;SDS_P2;PMS_P1;PMS_P2;Temp;Humidity;BMP_temperature;BMP_pressure;BME280_temperature;BME280_humidity;BME280_pressure;Samples;Min_cycle;Max_cycle;Signal;HPM_P1;HPM_P2
2023/11/25 00:00:22;;;;;;;1999.90;999.90;;;5.40;99.90;;;;;;4996345;28;20485;-70
2023/11/25 00:02:49;;;;;;;1999.90;999.90;;;5.30;99.90;;;;;;5040810;28;20034;-70
2023/11/25 00:05:16;;;;;;;1999.90;999.90;;;5.30;99.90;;;;;;4996598;28;20034;-71
2023/11/25 00:07:41;;;;;;;1999.90;999.90;;;5.40;99.90;;;;;;5024079;28;20688;-70
2023/11/25 00:10:08;;;;;;;1999.90;999.90;;;5.70;99.90;;;;;;4994426;28;20068;-70
2023/11/25 00:12:34;;;;;;;1999.90;999.90;;;5.70;99.90;;;;;;4996984;28;20141;-70
2023/11/25 00:15:01;;;;;;;1999.90;999.90;;;5.70;99.90;;;;;;5002603;28;20489;-70
2023/11/25 00:17:29;;;;;;;1999.90;999.90;;;5.60;99.90;;;;;;4993152;28;20329;-70
2023/11/25 00:19:56;;;;;;;1999.90;999.90;;;5.60;99.90;;;;;;5000706;28;20054;-71
2023/11/25 00:22:22;;;;;;;1999.90;999.90;;;5.60;99.90;;;;;;5000395;28;20031;-70
2023/11/25 00:24:49;;;;;;;1999.90;999.90;;;5.50;99.90;;;;;;5000897;28;20049;-70
2023/11/25 00:27:15;;;;;;;1999.90;999.90;;;5.50;99.90;;;;;;4992974;28;20034;-70
2023/11/25 00:29:41;;;;;;;1999.90;999.90;;;5.40;99.90;;;;;;4996341;28;20071;-70
2023/11/25 00:32:10;;;;;;;1999.90;999.90;;;5.40;99.90;;;;;;4993442;28;20034;-70
2023/11/25 00:34:36;;;;;;;1999.90;999.90;;;5.40;99.90;;;;;;4993662;28;20026;-70
2023/11/25 00:37:02;;;;;;;1999.90;999.90;;;5.30;99.90;;;;;;5026128;28;20345;-70
2023/11/25 00:39:29;;;;;;;1999.90;999.90;;;5.20;99.90;;;;;;4993849;28;20030;-70
2023/11/25 00:41:55;;;;;;;1999.90;999.90;;;5.10;99.90;;;;;;4992308;28;20014;-70
2023/11/25 00:44:21;;;;;;;1999.90;999.90;;;5.00;99.90;;;;;;4983484;28;20029;-70
2023/11/25 00:46:47;;;;;;;1999.90;999.90;;;4.80;99.90;;;;;;4994447;28;20055;-70
2023/11/25 00:49:15;;;;;;;1999.90;999.90;;;4.70;99.90;;;;;;4992334;28;20060;-71
2023/11/25 00:51:42;;;;;;;1999.90;999.90;;;4.50;99.90;;;;;;5004479;28;20028;-71
2023/11/25 00:54:08;;;;;;;1999.90;999.90;;;4.50;99.90;;;;;;4988563;28;20110;-70
2023/11/25 00:56:34;;;;;;;1999.90;999.90;;;4.50;99.90;;;;;;4994291;28;20044;-71
2023/11/25 00:59:00;;;;;;;1999.90;999.90;;;4.50;99.90;;;;;;4992348;28;20143;-71
2023/11/25 01:01:26;;;;;;;1999.90;999.90;;;4.50;99.90;;;;;;4992953;28;20530;-71
2023/11/25 01:03:52;;;;;;;1999.90;999.90;;;4.40;99.90;;;;;;4995596;28;20030;-71
2023/11/25 01:06:18;;;;;;;1999.90;999.90;;;4.50;99.90;;;;;;4997035;28;20029;-71
2023/11/25 01:08:44;;;;;;;1999.90;999.90;;;4.40;99.90;;;;;;4996333;28;20050;-71
2023/11/25 01:11:10;;;;;;;1999.90;999.90;;;4.40;99.90;;;;;;4992485;28;20037;-71
2023/11/25 01:13:36;;;;;;;1999.90;999.90;;;4.30;99.90;;;;;;4994301;28;20030;-71
2023/11/25 01:16:03;;;;;;;1999.90;999.90;;;4.30;99.90;;;;;;4974956;28;20049;-71
2023/11/25 01:18:29;;;;;;;1999.90;999.90;;;4.30;99.90;;;;;;4990374;28;20019;-71
2023/11/25 01:20:55;;;;;;;1999.90;999.90;;;4.30;99.90;;;;;;5023999;28;20489;-71
2023/11/25 01:23:22;;;;;;;1999.90;999.90;;;4.20;99.90;;;;;;4975093;28;20026;-70
2023/11/25 01:25:49;;;;;;;1999.90;999.90;;;4.20;99.90;;;;;;4992489;28;20088;-71
2023/11/25 01:28:14;;;;;;;;;;;4.30;99.90;;;;;;4992570;28;20034;-70
2023/11/25 01:30:40;;;;;;;1999.90;999.90;;;4.50;99.90;;;;;;4992953;28;19933;-70
2023/11/25 01:33:06;;;;;;;1999.90;999.90;;;4.70;99.90;;;;;;4992705;28;20023;-70
2023/11/25 01:35:33;;;;;;;1999.90;999.90;;;4.80;99.90;;;;;;4992577;28;20015;-70
2023/11/25 01:37:58;;;;;;;1999.90;999.90;;;4.80;99.90;;;;;;4991546;28;20023;-70
2023/11/25 01:40:24;;;;;;;1999.90;999.90;;;4.80;99.90;;;;;;4992118;28;20022;-70
2023/11/25 01:42:55;;;;;;;1999.90;999.90;;;4.90;99.90;;;;;;4992639;28;20117;-70
2023/11/25 01:45:21;;;;;;;1999.90;999.90;;;4.90;99.90;;;;;;5003506;28;20037;-70
2023/11/25 01:47:47;;;;;;;1999.90;999.90;;;4.90;99.90;;;;;;4992018;28;20030;-70
2023/11/25 01:50:13;;;;;;;1999.90;999.90;;;4.80;99.90;;;;;;4990317;28;20053;-70
2023/11/25 01:52:40;;;;;;;1999.90;999.90;;;4.70;99.90;;;;;;4993857;28;20061;-70
2023/11/25 01:55:08;;;;;;;1999.90;999.90;;;4.50;99.90;;;;;;5001592;28;20462;-70
2023/11/25 01:57:34;;;;;;;1999.90;999.90;;;4.40;99.90;;;;;;4990789;28;20485;-70
2023/11/25 02:00:07;;;;;;;1999.90;999.90;;;4.30;99.90;;;;;;4992577;28;20031;-70
2023/11/25 02:02:37;;;;;;;1999.90;999.90;;;4.10;99.90;;;;;;4991095;28;20116;-70
2023/11/25 02:05:03;;;;;;;1999.90;999.90;;;4.00;99.90;;;;;;4993148;28;20053;-70
2023/11/25 02:07:29;;;;;;;1999.90;999.90;;;4.00;99.90;;;;;;4991501;28;20045;-70
2023/11/25 02:09:58;;;;;;;1999.90;999.90;;;4.10;99.90;;;;;;4992278;28;20027;-70
2023/11/25 02:12:24;;;;;;;1999.90;999.90;;;4.70;99.90;;;;;;4991946;28;20045;-71
2023/11/25 02:14:50;;;;;;;1999.90;999.90;;;5.10;99.90;;;;;;4992525;28;20366;-70
2023/11/25 02:17:16;;;;;;;1999.90;999.90;;;5.20;99.90;;;;;;4991927;28;20054;-70
2023/11/25 02:19:44;;;;;;;1999.90;999.90;;;5.20;99.90;;;;;;4991105;28;20018;-70
2023/11/25 02:22:10;;;;;;;1999.90;999.90;;;5.20;99.90;;;;;;4992176;28;20044;-70
2023/11/25 02:24:37;;;;;;;1999.90;999.90;;;5.00;99.90;;;;;;4993043;28;20025;-70
2023/11/25 02:27:04;;;;;;;1999.90;999.90;;;5.00;99.90;;;;;;4984971;28;20060;-70
2023/11/25 02:29:31;;;;;;;;;;;4.80;99.90;;;;;;4985214;28;20034;-70
2023/11/25 02:32:04;;;;;;;1999.90;999.90;;;4.70;99.90;;;;;;4991842;28;19917;-70
2023/11/25 02:34:30;;;;;;;1999.90;999.90;;;4.60;99.90;;;;;;4992369;28;20033;-71
2023/11/25 02:36:57;;;;;;;1999.90;999.90;;;4.50;99.90;;;;;;5003914;28;20116;-71
2023/11/25 02:39:23;;;;;;;1999.90;999.90;;;4.50;99.90;;;;;;4990038;28;20749;-71
2023/11/25 02:41:50;;;;;;;1999.90;999.90;;;4.50;99.90;;;;;;4991226;28;20362;-71
2023/11/25 02:44:17;;;;;;;1999.90;999.90;;;4.50;99.90;;;;;;4990426;28;20109;-71
2023/11/25 02:46:48;;;;;;;1999.90;999.90;;;4.50;99.90;;;;;;4993419;28;20076;-71
2023/11/25 02:49:14;;;;;;;1999.90;999.90;;;4.50;99.90;;;;;;4991209;28;20121;-71
2023/11/25 02:51:51;;;;;;;1999.90;999.90;;;4.50;99.90;;;;;;4990453;28;20325;-71
2023/11/25 02:54:17;;;;;;;;;;;4.50;99.90;;;;;;4991582;28;20481;-71
2023/11/25 02:56:43;;;;;;;1999.90;999.90;;;4.50;99.90;;;;;;4997926;28;19920;-71
2023/11/25 02:59:09;;;;;;;1999.90;999.90;;;4.50;99.90;;;;;;4991594;28;20125;-71
2023/11/25 03:01:39;;;;;;;1999.90;999.90;;;4.50;99.90;;;;;;4991418;28;20027;-71
2023/11/25 03:04:05;;;;;;;1999.90;999.90;;;4.50;99.90;;;;;;4990644;28;20035;-71
2023/11/25 03:06:31;;;;;;;1999.90;999.90;;;4.60;99.90;;;;;;4994693;28;20026;-70
2023/11/25 03:08:58;;;;;;;1999.90;999.90;;;4.60;99.90;;;;;;4991519;28;20091;-71
2023/11/25 03:11:26;;;;;;;;;;;4.60;99.90;;;;;;4999474;28;20034;-71
2023/11/25 03:13:51;;;;;;;1999.90;999.90;;;4.60;99.90;;;;;;4995719;28;19914;-71
2023/11/25 03:16:24;;;;;;;1999.90;999.90;;;4.50;99.90;;;;;;4989797;28;20072;-71
2023/11/25 03:18:51;;;;;;;1999.90;999.90;;;4.50;99.90;;;;;;4991835;28;20037;-71
2023/11/25 03:21:20;;;;;;;1999.90;999.90;;;4.50;99.90;;;;;;4991684;28;20068;-71
2023/11/25 03:23:48;;;;;;;1999.90;999.90;;;4.50;99.90;;;;;;4977611;28;20022;-71
2023/11/25 03:26:14;;;;;;;1999.90;999.90;;;4.50;99.90;;;;;;4991437;28;20409;-70
2023/11/25 03:28:40;;;;;;;1999.90;999.90;;;4.80;99.90;;;;;;4999341;28;20030;-70
2023/11/25 03:31:07;;;;;;;1999.90;999.90;;;5.20;99.90;;;;;;4989876;28;20022;-71
2023/11/25 03:33:33;;;;;;;;;;;5.50;99.90;;;;;;4991360;28;20023;-70
2023/11/25 03:35:59;;;;;;;1999.90;999.90;;;5.60;99.90;;;;;;4990263;28;19910;-70
2023/11/25 03:38:25;;;;;;;1999.90;999.90;;;5.60;99.90;;;;;;4990935;28;20095;-70
2023/11/25 03:40:52;;;;;;;1999.90;999.90;;;5.50;99.90;;;;;;4991894;28;20034;-70
2023/11/25 03:43:19;;;;;;;1999.90;999.90;;;5.60;99.90;;;;;;4976439;28;20103;-71
2023/11/25 03:45:44;;;;;;;1999.90;999.90;;;5.80;99.90;;;;;;4977008;28;20069;-71
2023/11/25 03:48:10;;;;;;;1999.90;999.90;;;6.00;99.90;;;;;;4997549;28;20064;-71
2023/11/25 03:50:36;;;;;;;1999.90;999.90;;;6.00;99.90;;;;;;5034876;28;20039;-71
2023/11/25 03:53:02;;;;;;;1999.90;999.90;;;6.10;99.90;;;;;;4992887;28;20083;-71
2023/11/25 03:55:28;;;;;;;1999.90;999.90;;;6.10;99.90;;;;;;4994346;28;20037;-71
2023/11/25 03:57:54;;;;;;;1999.90;999.90;;;6.00;99.90;;;;;;4993937;28;20034;-70
2023/11/25 04:00:22;;;;;;;1999.90;999.90;;;6.00;99.90;;;;;;5061347;28;20033;-70
2023/11/25 04:02:48;;;;;;;1999.90;999.90;;;5.90;99.90;;;;;;4993816;28;20447;-71
2023/11/25 04:05:16;;;;;;;1999.90;999.90;;;6.00;99.90;;;;;;4996084;28;20034;-70
2023/11/25 04:07:43;;;;;;;1999.90;999.90;;;5.80;99.90;;;;;;5016587;28;20043;-70
2023/11/25 04:10:14;;;;;;;1999.90;999.90;;;5.70;99.90;;;;;;5013781;28;20035;-70
2023/11/25 04:12:44;;;;;;;1999.90;999.90;;;5.40;99.90;;;;;;4976656;28;20037;-70
2023/11/25 04:15:11;;;;;;;1999.90;999.90;;;5.30;99.90;;;;;;4994586;28;20404;-70
2023/11/25 04:17:38;;;;;;;1999.90;999.90;;;5.20;99.90;;;;;;4995852;28;20030;-70
2023/11/25 04:20:12;;;;;;;1999.90;999.90;;;5.10;99.90;;;;;;4993797;28;20034;-70
2023/11/25 04:22:42;;;;;;;1999.90;999.90;;;5.10;99.90;;;;;;4980968;28;20500;-70
2023/11/25 04:25:11;;;;;;;1999.90;999.90;;;5.10;99.90;;;;;;4993366;28;20435;-70
2023/11/25 04:27:41;;;;;;;1999.90;999.90;;;5.10;99.90;;;;;;4992655;28;20028;-70
2023/11/25 04:30:09;;;;;;;1999.90;999.90;;;5.20;99.90;;;;;;4993508;28;20046;-70
2023/11/25 04:32:36;;;;;;;1999.90;999.90;;;5.20;99.90;;;;;;4995733;28;20030;-70
2023/11/25 04:35:04;;;;;;;1999.90;999.90;;;5.20;99.90;;;;;;5003513;28;20101;-71
2023/11/25 04:37:31;;;;;;;1999.90;999.90;;;5.30;99.90;;;;;;5006206;28;20025;-70
2023/11/25 04:39:56;;;;;;;1999.90;999.90;;;5.30;99.90;;;;;;4993460;28;20058;-71
2023/11/25 04:42:24;;;;;;;1999.90;999.90;;;5.20;99.90;;;;;;4993718;28;20054;-70
2023/11/25 04:44:49;;;;;;;1999.90;999.90;;;5.10;99.90;;;;;;4993173;28;20099;-71
2023/11/25 04:47:15;;;;;;;1999.90;999.90;;;5.10;99.90;;;;;;5003166;28;20030;-71
2023/11/25 04:49:41;;;;;;;1999.90;999.90;;;5.00;99.90;;;;;;4994350;28;20061;-71
2023/11/25 04:52:07;;;;;;;1999.90;999.90;;;5.00;99.90;;;;;;4997047;28;20034;-70
2023/11/25 04:54:32;;;;;;;1999.90;999.90;;;4.90;99.90;;;;;;4993613;28;20026;-70
2023/11/25 04:57:01;;;;;;;1999.90;999.90;;;4.80;99.90;;;;;;4996631;28;20025;-70
2023/11/25 04:59:29;;;;;;;1999.90;999.90;;;4.80;99.90;;;;;;4997488;28;20076;-70
2023/11/25 05:01:55;;;;;;;1999.90;999.90;;;4.80;99.90;;;;;;4993080;28;20027;-71
2023/11/25 05:04:20;;;;;;;1999.90;999.90;;;4.80;99.90;;;;;;4993056;28;20037;-70
2023/11/25 05:06:47;;;;;;;1999.90;999.90;;;4.80;99.90;;;;;;4992413;28;20412;-71
2023/11/25 05:09:13;;;;;;;1999.90;999.90;;;4.80;99.90;;;;;;5002003;28;20117;-71
2023/11/25 05:11:42;;;;;;;1999.90;999.90;;;4.70;99.90;;;;;;4995196;28;20061;-71
2023/11/25 05:14:07;;;;;;;1999.90;999.90;;;4.70;99.90;;;;;;4992897;28;20105;-71
2023/11/25 05:16:33;;;;;;;1999.90;999.90;;;4.60;99.90;;;;;;4977004;28;20181;-71
2023/11/25 05:18:59;;;;;;;1999.90;999.90;;;4.60;99.90;;;;;;4997659;28;20532;-71
2023/11/25 05:21:25;;;;;;;1999.90;999.90;;;4.60;99.90;;;;;;4995333;28;20045;-71
2023/11/25 05:23:51;;;;;;;1999.90;999.90;;;4.80;99.90;;;;;;4991527;28;20030;-70
2023/11/25 05:26:17;;;;;;;1999.90;999.90;;;4.90;99.90;;;;;;4991873;28;20401;-71
2023/11/25 05:28:43;;;;;;;1999.90;999.90;;;5.00;99.90;;;;;;4992337;28;20811;-70
2023/11/25 05:31:09;;;;;;;1999.90;999.90;;;5.10;99.90;;;;;;4975778;28;20381;-70
2023/11/25 05:33:35;;;;;;;1999.90;999.90;;;5.20;99.90;;;;;;4993083;28;20134;-70
2023/11/25 05:36:02;;;;;;;1999.90;999.90;;;5.30;99.90;;;;;;4992047;28;20124;-70
2023/11/25 05:38:28;;;;;;;1999.90;999.90;;;5.20;99.90;;;;;;4991941;28;20018;-71
2023/11/25 05:40:54;;;;;;;1999.90;999.90;;;5.20;99.90;;;;;;4991549;28;20046;-71
2023/11/25 05:43:23;;;;;;;1999.90;999.90;;;5.20;99.90;;;;;;4991740;28;20103;-70
2023/11/25 05:45:49;;;;;;;1999.90;999.90;;;5.20;99.90;;;;;;4990882;28;20087;-70
2023/11/25 05:48:17;;;;;;;1999.90;999.90;;;5.20;99.90;;;;;;4991827;28;20379;-71
2023/11/25 05:50:43;;;;;;;1999.90;999.90;;;5.30;99.90;;;;;;4991079;28;20030;-71
2023/11/25 05:53:08;;;;;;;1999.90;999.90;;;5.40;99.90;;;;;;4991492;28;20338;-70
2023/11/25 05:55:34;;;;;;;1999.90;999.90;;;5.40;99.90;;;;;;4973852;28;20044;-70
2023/11/25 05:58:01;;;;;;;1999.90;999.90;;;5.40;99.90;;;;;;4994549;28;20375;-70
2023/11/25 06:00:29;;;;;;;1999.90;999.90;;;5.30;99.90;;;;;;4991673;28;20321;-70
2023/11/25 06:02:55;;;;;;;1999.90;999.90;;;5.40;99.90;;;;;;4991040;28;20117;-70
2023/11/25 06:05:22;;;;;;;1999.90;999.90;;;5.40;99.90;;;;;;4993671;28;20038;-70
2023/11/25 06:07:48;;;;;;;1999.90;999.90;;;5.60;99.90;;;;;;4991304;28;20022;-70
2023/11/25 06:10:14;;;;;;;1999.90;999.90;;;5.60;99.90;;;;;;4990987;28;20034;-69
2023/11/25 06:12:41;;;;;;;1999.90;999.90;;;5.70;99.90;;;;;;4992231;28;20053;-70
2023/11/25 06:15:09;;;;;;;1999.90;999.90;;;5.90;99.90;;;;;;4991186;28;20461;-70
2023/11/25 06:17:36;;;;;;;1999.90;999.90;;;5.90;99.90;;;;;;4974393;28;20118;-70
2023/11/25 06:20:03;;;;;;;1999.90;999.90;;;5.90;99.90;;;;;;4991877;28;20026;-70
2023/11/25 06:22:29;;;;;;;1999.90;999.90;;;5.90;99.90;;;;;;4991642;28;20069;-70
2023/11/25 06:24:58;;;;;;;1999.90;999.90;;;5.70;99.90;;;;;;4993897;28;20042;-70
2023/11/25 06:27:24;;;;;;;1999.90;999.90;;;5.70;99.90;;;;;;4976550;28;20064;-70
2023/11/25 06:29:50;;;;;;;1999.90;999.90;;;5.60;99.90;;;;;;4996887;28;20054;-70
2023/11/25 06:32:16;;;;;;;1999.90;999.90;;;5.50;99.90;;;;;;4991236;28;20026;-69
2023/11/25 06:34:42;;;;;;;1999.90;999.90;;;5.60;99.90;;;;;;4991262;28;20033;-70
2023/11/25 06:37:08;;;;;;;1999.90;999.90;;;5.70;99.90;;;;;;4991537;28;20023;-70
2023/11/25 06:39:33;;;;;;;1999.90;999.90;;;5.80;99.90;;;;;;4994149;28;20060;-70
2023/11/25 06:42:00;;;;;;;1999.90;999.90;;;5.90;99.90;;;;;;4991611;28;20388;-71
2023/11/25 06:44:27;;;;;;;1999.90;999.90;;;5.90;99.90;;;;;;4991308;28;20037;-71
2023/11/25 06:46:52;;;;;;;;;;;5.90;99.90;;;;;;4999949;28;20114;-71
2023/11/25 06:49:18;;;;;;;1999.90;999.90;;;5.70;99.90;;;;;;4991037;28;20260;-71
2023/11/25 06:51:44;;;;;;;1999.90;999.90;;;5.60;99.90;;;;;;4991348;28;20038;-71
2023/11/25 06:54:11;;;;;;;1999.90;999.90;;;5.50;99.90;;;;;;4991319;28;20022;-70
2023/11/25 06:56:40;;;;;;;1999.90;999.90;;;5.40;99.90;;;;;;4990501;28;20028;-71
2023/11/25 06:59:06;;;;;;;1999.90;999.90;;;5.30;99.90;;;;;;4987493;28;20363;-70
2023/11/25 07:01:32;;;;;;;1999.90;999.90;;;5.30;99.90;;;;;;4991095;28;20027;-70
2023/11/25 07:03:58;;;;;;;1999.90;999.90;;;5.30;99.90;;;;;;4991454;28;20363;-71
2023/11/25 07:06:24;;;;;;;1999.90;999.90;;;5.30;99.90;;;;;;4990737;28;20133;-71
2023/11/25 07:08:50;;;;;;;1999.90;999.90;;;5.20;99.90;;;;;;4991490;28;20031;-70
2023/11/25 07:11:16;;;;;;;1999.90;999.90;;;5.20;99.90;;;;;;4986627;28;20429;-70
2023/11/25 07:13:42;;;;;;;1999.90;999.90;;;5.20;99.90;;;;;;4991451;28;20477;-70
2023/11/25 07:16:08;;;;;;;1999.90;999.90;;;5.10;99.90;;;;;;4993073;28;20102;-70
2023/11/25 07:18:35;;;;;;;1999.90;999.90;;;5.10;99.90;;;;;;4993933;28;20449;-70
2023/11/25 07:21:00;;;;;;;1999.90;999.90;;;5.20;99.90;;;;;;5001384;28;20391;-70
2023/11/25 07:23:29;;;;;;;1999.90;999.90;;;5.30;99.90;;;;;;4995818;28;20121;-71
2023/11/25 07:25:55;;;;;;;1999.90;999.90;;;5.40;99.90;;;;;;4993117;28;20108;-71
2023/11/25 07:28:22;;;;;;;1999.90;999.90;;;5.40;99.90;;;;;;4995117;28;20049;-70
2023/11/25 07:30:48;;;;;;;1999.90;999.90;;;5.30;99.90;;;;;;4994349;28;20493;-70
2023/11/25 07:33:14;;;;;;;1999.90;999.90;;;5.40;99.90;;;;;;4994431;28;20042;-70
2023/11/25 07:35:40;;;;;;;1999.90;999.90;;;5.30;99.90;;;;;;4977542;28;20095;-71
2023/11/25 07:38:06;;;;;;;1999.90;999.90;;;5.30;99.90;;;;;;4996545;28;20054;-70
2023/11/25 07:40:34;;;;;;;1999.90;999.90;;;5.30;99.90;;;;;;4977120;28;20372;-70
2023/11/25 07:43:00;;;;;;;1999.90;999.90;;;5.50;99.90;;;;;;4993535;28;20033;-73
2023/11/25 07:45:26;;;;;;;1999.90;999.90;;;5.40;99.90;;;;;;4995211;28;20037;-71
2023/11/25 07:47:52;;;;;;;1999.90;999.90;;;5.20;99.90;;;;;;4994497;28;20049;-70
2023/11/25 07:50:19;;;;;;;1999.90;999.90;;;5.20;99.90;;;;;;5022748;28;20039;-70
2023/11/25 07:52:45;;;;;;;1999.90;999.90;;;5.10;99.90;;;;;;4997027;28;20072;-70
2023/11/25 07:55:11;;;;;;;1999.90;999.90;;;5.00;99.90;;;;;;4993948;28;20022;-71
2023/11/25 07:57:38;;;;;;;1999.90;999.90;;;5.00;99.90;;;;;;4993642;28;20038;-70
2023/11/25 08:00:06;;;;;;;1999.90;999.90;;;4.80;99.90;;;;;;4979586;28;20040;-70
2023/11/25 08:02:33;;;;;;;1999.90;999.90;;;4.80;99.90;;;;;;4978398;28;20094;-70
2023/11/25 08:04:58;;;;;;;1999.90;999.90;;;4.70;99.90;;;;;;4994145;28;20076;-70
2023/11/25 08:07:24;;;;;;;1999.90;999.90;;;4.60;99.90;;;;;;4998388;28;20069;-70
2023/11/25 08:09:51;;;;;;;1999.90;999.90;;;4.60;99.90;;;;;;4997782;28;20049;-70
2023/11/25 08:12:18;;;;;;;1999.90;999.90;;;4.60;99.90;;;;;;4993132;28;20052;-70
2023/11/25 08:14:44;;;;;;;1999.90;999.90;;;4.60;99.90;;;;;;4993111;28;20058;-70
2023/11/25 08:17:10;;;;;;;1999.90;999.90;;;4.70;99.90;;;;;;4992645;28;20414;-70
2023/11/25 08:19:36;;;;;;;1999.90;999.90;;;4.80;99.90;;;;;;4977063;28;20113;-70
2023/11/25 08:22:02;;;;;;;1999.90;999.90;;;5.10;99.90;;;;;;4992576;28;20102;-71
2023/11/25 08:24:27;;;;;;;1999.90;999.90;;;5.30;99.90;;;;;;4991865;28;20039;-69
2023/11/25 08:26:53;;;;;;;1999.90;999.90;;;5.50;99.90;;;;;;4992914;28;20022;-70
2023/11/25 08:29:20;;;;;;;1999.90;999.90;;;5.50;99.90;;;;;;4993936;28;20030;-70
2023/11/25 08:31:45;;;;;;;1999.90;999.90;;;5.60;99.90;;;;;;5000413;28;20030;-70
2023/11/25 08:34:12;;;;;;;1999.90;999.90;;;5.70;99.90;;;;;;4993674;28;20034;-71
2023/11/25 08:36:52;;;;;;;1999.90;999.90;;;5.70;99.90;;;;;;4993638;28;20088;-70
2023/11/25 08:39:25;;;;;;;1999.90;999.90;;;5.70;99.90;;;;;;4994033;28;20403;-69
2023/11/25 08:41:52;;;;;;;1999.90;999.90;;;5.70;99.90;;;;;;4980055;28;20097;-70
2023/11/25 08:44:19;;;;;;;1999.90;999.90;;;5.70;99.90;;;;;;4994793;28;20025;-71
2023/11/25 08:46:46;;;;;;;1999.90;999.90;;;5.70;99.90;;;;;;4993075;28;20115;-70
2023/11/25 08:49:13;;;;;;;1999.90;999.90;;;5.80;99.90;;;;;;4992616;28;20159;-70
2023/11/25 08:51:46;;;;;;;1999.90;999.90;;;5.90;99.90;;;;;;4989216;28;20391;-71
2023/11/25 08:54:13;;;;;;;1999.90;999.90;;;5.90;99.90;;;;;;4992586;28;20031;-70
2023/11/25 08:56:48;;;;;;;1999.90;999.90;;;6.00;99.90;;;;;;4992471;28;20440;-70
2023/11/25 08:59:20;;;;;;;1999.90;999.90;;;6.10;99.90;;;;;;4993106;28;20080;-71
2023/11/25 09:01:47;;;;;;;1999.90;999.90;;;6.20;99.90;;;;;;4995073;28;20042;-70
2023/11/25 09:04:19;;;;;;;1999.90;999.90;;;6.30;99.90;;;;;;4990969;28;20034;-70
2023/11/25 09:06:48;;;;;;;1999.90;999.90;;;6.40;99.90;;;;;;5016579;28;20049;-69
2023/11/25 09:09:17;;;;;;;1999.90;999.90;;;6.40;99.90;;;;;;4991996;28;20250;-70
2023/11/25 09:11:43;;;;;;;1999.90;999.90;;;6.40;99.90;;;;;;4991752;28;20022;-71
2023/11/25 09:14:09;;;;;;;1999.90;999.90;;;6.40;99.90;;;;;;4991922;28;20033;-70
2023/11/25 09:16:35;;;;;;;1999.90;999.90;;;6.40;99.90;;;;;;4997846;28;20039;-70
2023/11/25 09:19:02;;;;;;;1999.90;999.90;;;6.40;99.90;;;;;;4993465;28;20030;-70
2023/11/25 09:21:28;;;;;;;;;;;6.40;99.90;;;;;;4992326;28;20033;-70
2023/11/25 09:23:55;;;;;;;1999.90;999.90;;;6.40;99.90;;;;;;4991875;28;20248;-70
2023/11/25 09:26:22;;;;;;;;;;;6.40;99.90;;;;;;4992641;28;20038;-70
2023/11/25 09:28:48;;;;;;;1999.90;999.90;;;6.50;99.90;;;;;;4992119;28;19963;-69
2023/11/25 09:31:15;;;;;;;1999.90;999.90;;;6.70;99.90;;;;;;4992488;28;20034;-70
2023/11/25 09:33:41;;;;;;;1999.90;999.90;;;6.70;99.90;;;;;;4975371;28;20022;-70
2023/11/25 09:36:07;;;;;;;1999.90;999.90;;;6.80;99.90;;;;;;4987133;28;20314;-70
2023/11/25 09:38:33;;;;;;;1999.90;999.90;;;6.70;99.90;;;;;;4991349;28;20018;-70
2023/11/25 09:40:59;;;;;;;1999.90;999.90;;;6.80;99.90;;;;;;4990749;28;20995;-70
2023/11/25 09:43:26;;;;;;;1999.90;999.90;;;6.90;99.90;;;;;;4991462;28;20079;-70
2023/11/25 09:45:53;;;;;;;1999.90;999.90;;;7.00;99.90;;;;;;4990892;28;20087;-70
2023/11/25 09:48:19;;;;;;;1999.90;999.90;;;7.00;99.90;;;;;;4992005;28;20072;-70
2023/11/25 09:50:45;;;;;;;1999.90;999.90;;;7.10;99.90;;;;;;4995222;28;20424;-71
2023/11/25 09:53:19;;;;;;;1999.90;999.90;;;7.30;99.90;;;;;;4990653;28;20022;-71
2023/11/25 09:55:57;;;;;;;1999.90;999.90;;;7.40;99.90;;;;;;4991202;28;20057;-71
2023/11/25 09:58:24;;;;;;;1999.90;999.90;;;7.60;99.90;;;;;;4983495;28;20708;-70
2023/11/25 10:00:52;;;;;;;1999.90;999.90;;;7.60;99.90;;;;;;4991608;28;20042;-70
2023/11/25 10:03:21;;;;;;;1999.90;999.90;;;7.40;99.90;;;;;;4991336;28;20105;-70
2023/11/25 10:05:47;;;;;;;1999.90;999.90;;;7.10;99.90;;;;;;5012520;28;20184;-71
2023/11/25 10:08:13;;;;;;;1999.90;999.90;;;6.90;99.90;;;;;;5054489;28;20250;-70
2023/11/25 10:10:39;;;;;;;1999.90;999.90;;;6.70;99.90;;;;;;4991585;28;20504;-71
2023/11/25 10:13:14;;;;;;;1999.90;999.90;;;6.60;99.90;;;;;;4990978;28;20469;-70
2023/11/25 10:15:46;;;;;;;1999.90;999.90;;;6.50;99.90;;;;;;4966983;28;20026;-69
2023/11/25 10:18:12;;;;;;;1999.90;999.90;;;6.40;99.90;;;;;;4986679;28;20481;-69
2023/11/25 10:20:42;;;;;;;1999.90;999.90;;;6.50;99.90;;;;;;4991056;28;20121;-69
2023/11/25 10:23:08;;;;;;;1999.90;999.90;;;6.60;99.90;;;;;;4991772;28;20046;-70
2023/11/25 10:25:34;;;;;;;1999.90;999.90;;;6.80;99.90;;;;;;5023320;28;20540;-69
2023/11/25 10:28:00;;;;;;;1999.90;999.90;;;7.00;99.90;;;;;;4991374;28;20034;-70
2023/11/25 10:30:28;;;;;;;1999.90;999.90;;;7.10;99.90;;;;;;4990680;28;20022;-69
2023/11/25 10:32:56;;;;;;;1999.90;999.90;;;7.20;99.90;;;;;;4981054;28;20025;-70
2023/11/25 10:35:25;;;;;;;1999.90;999.90;;;7.20;99.90;;;;;;4981174;28;20073;-71
2023/11/25 10:37:51;;;;;;;1999.90;999.90;;;7.20;99.90;;;;;;4990609;28;20023;-69
2023/11/25 10:40:19;;;;;;;1999.90;999.90;;;7.10;99.90;;;;;;4990662;28;20032;-70
2023/11/25 10:42:46;;;;;;;1999.90;999.90;;;7.00;99.90;;;;;;4999479;28;20107;-71
2023/11/25 10:45:18;;;;;;;1999.90;999.90;;;7.00;99.90;;;;;;4990998;28;20540;-70
2023/11/25 10:47:44;;;;;;;1999.90;999.90;;;6.90;99.90;;;;;;4990324;28;20096;-70
2023/11/25 10:50:11;;;;;;;1999.90;999.90;;;6.90;99.90;;;;;;4977165;28;20038;-70
2023/11/25 10:52:39;;;;;;;1999.90;999.90;;;6.90;99.90;;;;;;4990714;28;20069;-70
2023/11/25 10:55:08;;;;;;;1999.90;999.90;;;6.90;99.90;;;;;;4991620;28;20026;-71
2023/11/25 10:57:35;;;;;;;1999.90;999.90;;;6.80;99.90;;;;;;4989670;28;20118;-71
2023/11/25 11:00:10;;;;;;;;;;;6.80;99.90;;;;;;4994596;28;20132;-71
2023/11/25 11:02:41;;;;;;;1999.90;999.90;;;6.90;99.90;;;;;;4990915;28;20223;-72
2023/11/25 11:05:09;;;;;;;1999.90;999.90;;;7.00;99.90;;;;;;4973055;28;20022;-71
2023/11/25 11:08:01;;;;;;;1999.90;999.90;;;7.20;99.90;;;;;;4993651;28;20031;-71
2023/11/25 11:10:38;;;;;;;1999.90;999.90;;;7.20;99.90;;;;;;4986039;28;20041;-72
2023/11/25 11:13:07;;;;;;;1999.90;999.90;;;7.20;99.90;;;;;;4990452;28;20037;-69
2023/11/25 11:15:37;;;;;;;1999.90;999.90;;;7.40;99.90;;;;;;4976483;28;20033;-70
2023/11/25 11:18:17;;;;;;;1999.90;999.90;;;7.50;99.90;;;;;;4990553;28;20026;-72
2023/11/25 11:20:51;;;;;;;1999.90;999.90;;;7.50;99.90;;;;;;4986898;28;20080;-71
2023/11/25 11:23:21;;;;;;;1999.90;999.90;;;7.70;99.90;;;;;;4985673;28;20102;-71
2023/11/25 11:26:09;;;;;;;1999.90;999.90;;;7.70;99.90;;;;;;4990217;28;20042;-71
2023/11/25 11:28:55;;;;;;;1999.90;999.90;;;7.50;99.90;;;;;;4990666;28;20060;-70
2023/11/25 11:31:58;;;;;;;1999.90;999.90;;;7.40;99.90;;;;;;4989759;28;20027;-70
2023/11/25 11:34:29;;;;;;;1999.90;999.90;;;7.40;99.90;;;;;;4989237;28;20458;-71
2023/11/25 11:36:55;;;;;;;1999.90;999.90;;;7.60;99.90;;;;;;4990176;28;20468;-69
2023/11/25 11:39:32;;;;;;;1999.90;999.90;;;7.70;99.90;;;;;;4990120;28;20029;-72
2023/11/25 11:42:29;;;;;;;1999.90;999.90;;;7.70;99.90;;;;;;4989592;28;20030;-72
2023/11/25 11:45:11;;;;;;;1999.90;999.90;;;7.70;99.90;;;;;;4988040;28;20030;-70
2023/11/25 11:47:39;;;;;;;1999.90;999.90;;;7.80;99.90;;;;;;4989971;28;20030;-71
2023/11/25 11:50:08;;;;;;;1999.90;999.90;;;7.80;99.90;;;;;;4985394;28;20425;-71
2023/11/25 11:52:46;;;;;;;1999.90;999.90;;;7.80;99.90;;;;;;4989047;28;20069;-71
2023/11/25 11:55:48;;;;;;;1999.90;999.90;;;7.70;99.90;;;;;;4982550;28;20030;-69
2023/11/25 11:58:16;;;;;;;1999.90;999.90;;;7.80;99.90;;;;;;4988641;28;20031;-71
2023/11/25 12:00:53;;;;;;;1999.90;999.90;;;8.10;99.90;;;;;;5000247;28;20107;-71
2023/11/25 12:03:20;;;;;;;1999.90;999.90;;;8.20;99.90;;;;;;4991562;28;20046;-70
2023/11/25 12:05:46;;;;;;;1999.90;999.90;;;8.10;99.90;;;;;;4973722;28;20048;-71
2023/11/25 12:08:12;;;;;;;1999.90;999.90;;;8.10;99.90;;;;;;4996044;28;20035;-70
2023/11/25 12:10:39;;;;;;;1999.90;999.90;;;8.00;99.90;;;;;;4963756;28;20058;-71
2023/11/25 12:13:05;;;;;;;1999.90;999.90;;;7.90;99.90;;;;;;5018381;28;20037;-71